»·PEaware :: N24701 L52-L88

N24701 :: L52-L88

FLIGHT INFORMATION

Flight Status: Arrived
Operator: Privately registered:
United States
More flights under this callsign
Pilot: Jeff W. (31011)
Aircraft: CESSNA 172 SKYHAWK
(C172)
More flights by this aircraft type
Origin: L52 Oceano Co
United States
Destination: L88 New Cuyama
United States
More flights between these airports :: More routes between these airports
Route: L52 WYNNR L88
File this flight plan on PilotEdge
Remarks:
Altitude:
(Current/Filed)
5,500ft
Speed:
(Current/Filed)
115kts
Departed: 08-Aug-20 06:53 AM
Arrived: 08-Aug-20 07:33 AM
Distance/Time
Traveled:
0nm/0:40
Distance/Time
To Go:
Arrived

Flight Plot

Page will automatically refresh every two minutes.


Map Options




Map Legend


Flown Route
Filed Route
Departure Airport
Arrival Airport
Navaid (VOR, NDB)
Fix

Horizontal Profiles

Position Reports

Time Latitude Longitude Heading Altitude Ground
Speed
08-Aug-20 06:51 35.093230 -120.459259 83 3728ft 96kts
08-Aug-20 06:53 35.093230 -120.459259 83 3728ft 96kts
08-Aug-20 06:54 35.093230 -120.459259 83 3728ft 96kts
08-Aug-20 06:55 35.093230 -120.459259 83 3728ft 96kts
08-Aug-20 07:01 35.104126 -120.624132 220 17ft 0kts
08-Aug-20 07:02 35.104126 -120.624132 220 17ft 0kts
08-Aug-20 07:03 35.104126 -120.624132 220 17ft 0kts
08-Aug-20 07:04 35.104126 -120.624132 220 17ft 0kts
08-Aug-20 07:05 35.104126 -120.624132 220 17ft 0kts
08-Aug-20 07:06 35.104041 -120.624222 220 17ft 7kts
08-Aug-20 07:07 35.097731 -120.614492 107 192ft 84kts
08-Aug-20 07:08 35.102161 -120.594192 71 731ft 92kts
08-Aug-20 07:09 35.107013 -120.564830 105 1432ft 94kts
08-Aug-20 07:09 35.105255 -120.538075 86 2030ft 95kts
08-Aug-20 07:11 35.105839 -120.499966 84 2837ft 96kts
08-Aug-20 07:12 35.106433 -120.467242 84 3522ft 96kts
08-Aug-20 07:12 35.106907 -120.440898 84 4070ft 96kts
08-Aug-20 07:14 35.107568 -120.403564 84 4844ft 94kts
08-Aug-20 07:14 35.108035 -120.376892 85 5388ft 93kts
08-Aug-20 07:15 35.108696 -120.339588 86 5516ft 128kts
08-Aug-20 07:16 35.109427 -120.294758 86 5500ft 132kts
08-Aug-20 07:17 35.110066 -120.255782 86 5500ft 132kts
08-Aug-20 07:18 35.110769 -120.211843 86 5493ft 124kts
08-Aug-20 07:19 35.111439 -120.169909 86 5500ft 123kts
08-Aug-20 07:20 35.112110 -120.126999 86 5503ft 130kts
08-Aug-20 07:21 35.104030 -120.084330 117 5501ft 132kts
08-Aug-20 07:22 35.087426 -120.044275 118 5499ft 132kts
08-Aug-20 07:23 35.070626 -120.004163 118 5500ft 132kts
08-Aug-20 07:24 35.053821 -119.964106 118 5500ft 132kts
08-Aug-20 07:25 35.037026 -119.924126 118 5500ft 132kts
08-Aug-20 07:26 35.020237 -119.884205 118 5500ft 132kts
08-Aug-20 07:27 35.002862 -119.842984 118 5226ft 145kts
08-Aug-20 07:28 34.984062 -119.798400 117 4599ft 144kts
08-Aug-20 07:29 34.967428 -119.758942 116 3931ft 123kts
08-Aug-20 07:30 34.953108 -119.725115 117 3271ft 103kts
08-Aug-20 07:31 34.942244 -119.700769 112 2514ft 75kts
08-Aug-20 07:32 34.938255 -119.690612 299 2206ft 11kts
08-Aug-20 07:33 34.939866 -119.693394 127 2206ft 0kts
08-Aug-20 07:34 34.939866 -119.693394 127 2206ft 0kts
08-Aug-20 07:35 35.103497 -120.624069 35 14ft 0kts
08-Aug-20 07:36 35.103497 -120.624069 35 14ft 0kts
08-Aug-20 07:37 35.103497 -120.624069 35 14ft 0kts
08-Aug-20 07:38 35.103497 -120.624069 35 14ft 0kts
08-Aug-20 07:39 35.103497 -120.624069 35 14ft 0kts
08-Aug-20 07:40 35.103497 -120.624069 35 14ft 0kts
08-Aug-20 07:41 35.103497 -120.624069 35 14ft 0kts
08-Aug-20 07:42 35.103497 -120.624069 35 14ft 0kts
08-Aug-20 07:43 35.103497 -120.624069 35 14ft 0kts
08-Aug-20 07:44 35.103497 -120.624069 35 14ft 0kts
08-Aug-20 07:45 35.103497 -120.624069 35 14ft 0kts
08-Aug-20 07:46 35.103497 -120.624069 35 14ft 0kts

Navigation Log

Ident Type
Flight plan parsing failed, navigation log unavailable